createdAt,value
2022-10-30T00:02:03.863Z,100560.20
2022-10-30T00:04:34.221Z,100562.00
2022-10-30T00:07:19.320Z,100556.40
2022-10-30T00:10:11.232Z,100557.00
2022-10-30T00:13:09.838Z,100557.40
2022-10-30T00:15:54.338Z,100551.00
2022-10-30T00:18:52.279Z,100549.20
2022-10-30T00:21:26.879Z,100554.60
2022-10-30T00:23:56.218Z,100554.40
2022-10-30T00:26:42.175Z,100554.60
2022-10-30T00:29:17.112Z,100550.80
2022-10-30T00:31:54.189Z,100551.60
2022-10-30T00:34:40.462Z,100548.80
2022-10-30T00:37:22.081Z,100544.60
2022-10-30T00:39:57.398Z,100537.80
2022-10-30T00:42:39.352Z,100536.20
2022-10-30T00:45:23.237Z,100543.80
2022-10-30T00:48:13.149Z,100537.20
2022-10-30T00:50:45.649Z,100534.40
2022-10-30T00:53:32.219Z,100539.00
2022-10-30T00:56:07.058Z,100531.40
2022-10-30T00:58:46.598Z,100526.80
2022-10-30T01:01:27.622Z,100522.80
2022-10-30T01:04:03.358Z,100520.60
2022-10-30T01:06:48.617Z,100514.60
2022-10-30T01:09:37.177Z,100504.00
2022-10-30T01:12:15.179Z,100504.20
2022-10-30T01:15:06.868Z,100505.80
2022-10-30T01:17:54.364Z,100512.00
2022-10-30T01:21:39.098Z,100517.60
2022-10-30T01:24:40.418Z,100529.80
2022-10-30T01:27:59.780Z,100527.20
2022-10-30T01:30:49.079Z,100519.60
2022-10-30T01:33:41.408Z,100519.80
2022-10-30T01:36:40.296Z,100517.40
2022-10-30T01:39:41.365Z,100511.80
2022-10-30T01:42:52.809Z,100512.20
2022-10-30T01:45:59.758Z,100506.80
2022-10-30T01:49:13.876Z,100509.40
2022-10-30T01:52:39.417Z,100509.20
2022-10-30T01:55:56.618Z,100510.60
2022-10-30T01:58:58.959Z,100511.00
2022-10-30T02:01:51.422Z,100507.00
2022-10-30T02:04:43.997Z,100513.60
2022-10-30T02:07:41.959Z,100518.80
2022-10-30T02:10:21.417Z,100516.80
2022-10-30T02:13:12.978Z,100520.60
2022-10-30T02:15:50.697Z,100520.80
2022-10-30T02:18:25.478Z,100523.40
2022-10-30T02:20:59.017Z,100522.40
2022-10-30T02:23:31.552Z,100524.40
2022-10-30T02:26:21.766Z,100531.00
2022-10-30T02:28:51.258Z,100530.60
2022-10-30T02:31:33.521Z,100530.00
2022-10-30T02:34:13.564Z,100517.20
2022-10-30T02:36:43.164Z,100511.80
2022-10-30T02:39:12.521Z,100507.20
2022-10-30T02:42:06.161Z,100507.80
2022-10-30T02:44:43.158Z,100506.40
2022-10-30T02:47:30.262Z,100507.40
2022-10-30T02:50:07.963Z,100504.40
2022-10-30T02:52:59.613Z,100504.00
2022-10-30T02:55:34.873Z,100504.40
2022-10-30T02:58:32.195Z,100507.60
2022-10-30T03:01:27.867Z,100500.80
2022-10-30T03:04:08.135Z,100501.20
2022-10-30T03:06:42.034Z,100505.20
2022-10-30T03:09:18.054Z,100505.60
2022-10-30T03:11:53.633Z,100507.80
2022-10-30T03:14:32.025Z,100504.20
2022-10-30T03:17:08.075Z,100503.20
2022-10-30T03:19:37.405Z,100499.40
2022-10-30T03:22:15.485Z,100495.20
2022-10-30T03:24:44.292Z,100497.00
2022-10-30T03:27:34.972Z,100494.60
2022-10-30T03:30:10.074Z,100496.20
2022-10-30T03:33:14.513Z,100506.20
2022-10-30T03:35:58.021Z,100512.00
2022-10-30T03:38:33.442Z,100507.00
2022-10-30T03:41:13.742Z,100502.40
2022-10-30T03:43:57.092Z,100508.00
2022-10-30T03:46:39.252Z,100501.40
2022-10-30T03:49:28.970Z,100500.00
2022-10-30T03:52:26.443Z,100497.00
2022-10-30T03:55:10.113Z,100498.40
2022-10-30T03:57:56.553Z,100495.60
2022-10-30T04:00:30.265Z,100496.40
2022-10-30T04:03:12.515Z,100501.20
2022-10-30T04:06:09.814Z,100498.40
2022-10-30T04:08:44.754Z,100493.20
2022-10-30T04:11:25.510Z,100492.40
2022-10-30T04:14:19.036Z,100496.20
2022-10-30T04:17:23.073Z,100484.00
2022-10-30T04:20:02.822Z,100488.20
2022-10-30T04:22:59.002Z,100481.00
2022-10-30T04:26:36.413Z,100482.80
2022-10-30T04:29:05.392Z,100482.60
2022-10-30T04:31:35.297Z,100479.80
2022-10-30T04:34:10.192Z,100475.80
2022-10-30T04:36:45.395Z,100473.80
2022-10-30T04:39:17.763Z,100477.80
2022-10-30T04:41:56.354Z,100470.80
2022-10-30T04:44:33.162Z,100464.20
2022-10-30T04:47:22.377Z,100470.40
2022-10-30T04:50:44.721Z,100476.40
2022-10-30T04:53:37.543Z,100481.40
2022-10-30T04:56:23.753Z,100480.60
2022-10-30T04:59:00.002Z,100482.60
2022-10-30T05:01:34.397Z,100480.00
2022-10-30T05:04:14.240Z,100475.80
2022-10-30T05:07:18.473Z,100477.20
2022-10-30T05:10:20.733Z,100472.20
2022-10-30T05:13:00.562Z,100471.20
2022-10-30T05:15:51.675Z,100466.80
2022-10-30T05:18:33.332Z,100472.80
2022-10-30T05:21:06.867Z,100471.80
2022-10-30T05:23:42.853Z,100473.40
2022-10-30T05:26:11.542Z,100470.40
2022-10-30T05:29:02.594Z,100470.60
2022-10-30T05:31:54.953Z,100467.80
2022-10-30T05:34:28.894Z,100467.80
2022-10-30T05:37:20.932Z,100473.00
2022-10-30T05:40:19.733Z,100471.60
2022-10-30T05:42:53.572Z,100472.40
2022-10-30T05:45:30.454Z,100476.20
2022-10-30T05:48:19.449Z,100481.60
2022-10-30T05:50:57.461Z,100482.20
2022-10-30T05:53:37.822Z,100484.60
2022-10-30T05:56:06.924Z,100487.80
2022-10-30T05:58:43.212Z,100488.60
2022-10-30T06:01:30.064Z,100480.00
2022-10-30T06:03:58.743Z,100483.20
2022-10-30T06:06:44.854Z,100486.60
2022-10-30T06:09:13.315Z,100486.20
2022-10-30T06:11:42.113Z,100489.40
2022-10-30T06:14:10.722Z,100494.20
2022-10-30T06:16:39.615Z,100501.40
2022-10-30T06:19:08.112Z,100505.80
2022-10-30T06:21:36.793Z,100509.40
2022-10-30T06:24:06.139Z,100506.60
2022-10-30T06:26:51.693Z,100505.20
2022-10-30T06:29:20.515Z,100505.20
2022-10-30T06:31:49.274Z,100507.20
2022-10-30T06:34:17.921Z,100513.00
2022-10-30T06:37:04.027Z,100515.60
2022-10-30T06:39:32.756Z,100513.00
2022-10-30T06:42:01.493Z,100506.20
2022-10-30T06:44:30.233Z,100502.00
2022-10-30T06:46:58.827Z,100502.40
2022-10-30T06:49:44.832Z,100503.00
2022-10-30T06:52:30.714Z,100500.40
2022-10-30T06:54:59.415Z,100504.00
2022-10-30T06:57:28.085Z,100503.00
2022-10-30T07:00:14.223Z,100498.40
2022-10-30T07:02:43.092Z,100496.00
2022-10-30T07:05:11.863Z,100507.80
2022-10-30T07:07:58.997Z,100514.00
2022-10-30T07:10:44.718Z,100518.80
2022-10-30T07:13:30.373Z,100517.60
2022-10-30T07:16:00.158Z,100522.80
2022-10-30T07:18:28.793Z,100517.60
2022-10-30T07:20:57.673Z,100524.40
2022-10-30T07:23:26.273Z,100523.60
2022-10-30T07:25:57.290Z,100525.80
2022-10-30T07:28:29.673Z,100524.60
2022-10-30T07:31:01.243Z,100525.60
2022-10-30T07:33:29.992Z,100526.40
2022-10-30T07:36:02.432Z,100525.20
2022-10-30T07:38:52.882Z,100524.00
2022-10-30T07:41:22.263Z,100520.40
2022-10-30T07:43:50.754Z,100522.00
2022-10-30T07:46:19.201Z,100523.40
2022-10-30T07:49:05.285Z,100528.60
2022-10-30T07:51:34.373Z,100530.40
2022-10-30T07:54:02.918Z,100528.00
2022-10-30T07:56:31.573Z,100528.80
2022-10-30T07:59:00.103Z,100527.40
2022-10-30T08:01:28.934Z,100527.80
2022-10-30T08:03:57.450Z,100529.80
2022-10-30T08:06:27.249Z,100525.00
2022-10-30T08:08:56.072Z,100522.80
2022-10-30T08:11:24.691Z,100516.20
2022-10-30T08:14:10.721Z,100513.80
2022-10-30T08:16:39.590Z,100519.80
2022-10-30T08:19:08.117Z,100520.00
2022-10-30T08:21:36.792Z,100515.60
2022-10-30T08:24:22.540Z,100518.40
2022-10-30T08:26:54.170Z,100507.60
2022-10-30T08:29:22.823Z,100502.80
2022-10-30T08:31:51.853Z,100494.60
2022-10-30T08:34:20.680Z,100496.60
2022-10-30T08:36:51.581Z,100495.80
2022-10-30T08:39:21.079Z,100498.20
2022-10-30T08:41:49.792Z,100497.20
2022-10-30T08:44:18.370Z,100499.20
2022-10-30T08:47:04.555Z,100499.60
2022-10-30T08:49:33.070Z,100495.80
2022-10-30T08:52:19.071Z,100493.00
2022-10-30T08:54:47.561Z,100487.40
2022-10-30T08:57:16.173Z,100487.20
2022-10-30T09:00:02.206Z,100492.00
2022-10-30T09:02:31.008Z,100495.80
2022-10-30T09:04:59.702Z,100502.40
2022-10-30T09:07:28.842Z,100509.20
2022-10-30T09:09:57.752Z,100509.40
2022-10-30T09:12:26.453Z,100507.80
2022-10-30T09:14:54.951Z,100506.00
2022-10-30T09:17:32.394Z,100496.80
2022-10-30T09:20:17.992Z,100495.60
2022-10-30T09:22:46.634Z,100493.40
2022-10-30T09:25:15.414Z,100491.00
2022-10-30T09:27:44.153Z,100488.60
2022-10-30T09:30:14.466Z,100486.00
2022-10-30T09:33:03.312Z,100483.20
2022-10-30T09:35:33.353Z,100481.00
2022-10-30T09:38:02.418Z,100481.40
2022-10-30T09:41:47.135Z,100478.60
2022-10-30T09:44:41.472Z,100473.00
2022-10-30T09:47:39.452Z,100473.00
2022-10-30T09:50:26.552Z,100465.20
2022-10-30T09:53:34.127Z,100455.40
2022-10-30T09:56:30.896Z,100456.80
2022-10-30T09:59:39.012Z,100452.00
2022-10-30T10:02:38.759Z,100444.40
2022-10-30T10:05:38.552Z,100447.60
2022-10-30T10:08:19.832Z,100446.80
2022-10-30T10:11:17.376Z,100443.60
2022-10-30T10:13:59.076Z,100441.40
2022-10-30T10:16:37.092Z,100437.00
2022-10-30T10:19:28.983Z,100440.00
2022-10-30T10:22:20.731Z,100439.60
2022-10-30T10:24:49.913Z,100445.80
2022-10-30T10:28:01.094Z,100442.00
2022-10-30T10:30:49.634Z,100442.80
2022-10-30T10:33:58.734Z,100435.40
2022-10-30T10:37:21.615Z,100433.20
2022-10-30T10:40:41.553Z,100435.00
2022-10-30T10:44:11.953Z,100437.20
2022-10-30T10:47:50.672Z,100433.80
2022-10-30T10:50:32.062Z,100430.20
2022-10-30T10:53:33.955Z,100431.60
2022-10-30T10:56:04.333Z,100427.00
2022-10-30T10:58:57.752Z,100423.80
2022-10-30T11:01:46.866Z,100419.80
2022-10-30T11:04:40.815Z,100417.40
2022-10-30T11:07:21.534Z,100414.80
2022-10-30T11:09:54.694Z,100412.60
2022-10-30T11:12:36.700Z,100419.20
2022-10-30T11:15:58.602Z,100420.60
2022-10-30T11:18:27.172Z,100420.20
2022-10-30T11:21:14.072Z,100421.20
2022-10-30T11:23:50.150Z,100421.60
2022-10-30T11:26:18.993Z,100419.80
2022-10-30T11:29:11.455Z,100414.60
2022-10-30T11:32:05.161Z,100413.80
2022-10-30T11:34:40.052Z,100410.60
2022-10-30T11:37:33.859Z,100405.00
2022-10-30T11:40:24.612Z,100398.60
2022-10-30T11:43:01.080Z,100395.80
2022-10-30T11:45:43.604Z,100396.80
2022-10-30T11:48:32.133Z,100399.40
2022-10-30T11:51:04.096Z,100404.20
2022-10-30T11:53:49.593Z,100405.40
2022-10-30T11:56:23.782Z,100404.80
2022-10-30T11:59:00.114Z,100407.40
2022-10-30T12:01:28.731Z,100408.80
2022-10-30T12:04:12.902Z,100407.00
2022-10-30T12:06:41.755Z,100405.00
2022-10-30T12:09:22.976Z,100406.80
2022-10-30T12:11:51.573Z,100402.20
2022-10-30T12:14:24.791Z,100398.20
2022-10-30T12:17:16.645Z,100399.60
2022-10-30T12:20:05.213Z,100387.40
2022-10-30T12:22:35.872Z,100392.20
2022-10-30T12:25:18.813Z,100391.80
2022-10-30T12:27:47.921Z,100391.80
2022-10-30T12:30:21.354Z,100391.40
2022-10-30T12:33:12.894Z,100380.60
2022-10-30T12:35:51.553Z,100378.60
2022-10-30T12:38:58.074Z,100375.00
2022-10-30T12:41:43.499Z,100374.40
2022-10-30T12:44:24.732Z,100379.40
2022-10-30T12:47:20.852Z,100381.60
2022-10-30T12:51:08.633Z,100385.00
2022-10-30T12:54:20.752Z,100386.20
2022-10-30T12:57:11.312Z,100381.20
2022-10-30T12:59:54.733Z,100381.80
2022-10-30T13:03:09.882Z,100382.00
2022-10-30T13:05:47.809Z,100375.60
2022-10-30T13:08:37.493Z,100375.00
2022-10-30T13:11:22.473Z,100372.80
2022-10-30T13:13:54.935Z,100378.40
2022-10-30T13:16:40.817Z,100371.20
2022-10-30T13:19:28.553Z,100371.20
2022-10-30T13:22:07.792Z,100369.80
2022-10-30T13:24:49.111Z,100370.80
2022-10-30T13:27:42.233Z,100366.60
2022-10-30T13:30:23.934Z,100365.00
2022-10-30T13:33:13.993Z,100364.20
2022-10-30T13:36:00.013Z,100364.00
2022-10-30T13:39:00.856Z,100361.80
2022-10-30T13:41:58.836Z,100360.60
2022-10-30T13:44:56.212Z,100361.20
2022-10-30T13:47:34.392Z,100358.60
2022-10-30T13:50:17.732Z,100358.80
2022-10-30T13:52:55.576Z,100359.00
2022-10-30T13:55:44.072Z,100359.00
2022-10-30T13:58:41.736Z,100355.00
2022-10-30T14:01:56.301Z,100358.40
2022-10-30T14:04:40.515Z,100361.00
2022-10-30T14:07:23.833Z,100357.20
2022-10-30T14:10:05.835Z,100352.60
2022-10-30T14:13:13.802Z,100351.60
2022-10-30T14:16:38.276Z,100343.00
2022-10-30T14:19:16.600Z,100338.80
2022-10-30T14:21:56.073Z,100342.60
2022-10-30T14:24:35.296Z,100342.80
2022-10-30T14:27:04.708Z,100345.40
2022-10-30T14:29:52.034Z,100347.20
2022-10-30T14:32:24.140Z,100347.20
2022-10-30T14:34:53.475Z,100347.80
2022-10-30T14:37:24.772Z,100348.20
2022-10-30T14:39:56.592Z,100341.80
2022-10-30T14:42:54.401Z,100345.00
2022-10-30T14:45:59.282Z,100340.20
2022-10-30T14:49:35.592Z,100336.20
2022-10-30T14:52:31.353Z,100342.20
2022-10-30T14:55:02.991Z,100344.80
2022-10-30T14:57:55.175Z,100342.20
2022-10-30T15:00:23.854Z,100336.00
2022-10-30T15:03:20.666Z,100334.80
2022-10-30T15:05:56.377Z,100338.20
2022-10-30T15:08:40.539Z,100336.00
2022-10-30T15:11:58.112Z,100343.80
2022-10-30T15:14:53.031Z,100350.00
2022-10-30T15:17:49.291Z,100346.20
2022-10-30T15:20:32.833Z,100345.80
2022-10-30T15:23:34.833Z,100347.20
2022-10-30T15:26:24.735Z,100346.20
2022-10-30T15:28:56.012Z,100344.20
2022-10-30T15:31:42.345Z,100347.20
2022-10-30T15:34:23.993Z,100340.20
2022-10-30T15:37:14.124Z,100337.00
2022-10-30T15:40:19.749Z,100335.20
2022-10-30T15:42:51.351Z,100336.20
2022-10-30T15:45:31.356Z,100333.40
2022-10-30T15:48:26.758Z,100339.20
2022-10-30T15:51:23.672Z,100336.60
2022-10-30T15:54:19.572Z,100336.60
2022-10-30T15:57:27.475Z,100339.80
2022-10-30T16:00:08.424Z,100340.00
2022-10-30T16:02:37.277Z,100343.20
2022-10-30T16:05:24.814Z,100346.40
2022-10-30T16:07:58.241Z,100346.40
2022-10-30T16:10:33.155Z,100349.00
2022-10-30T16:13:04.314Z,100349.60
2022-10-30T16:15:40.713Z,100352.00
2022-10-30T16:18:23.831Z,100351.40
2022-10-30T16:21:03.252Z,100352.80
2022-10-30T16:23:42.832Z,100357.20
2022-10-30T16:26:36.323Z,100359.20
2022-10-30T16:29:27.172Z,100360.60
2022-10-30T16:31:56.213Z,100361.80
2022-10-30T16:34:32.284Z,100361.40
2022-10-30T16:37:05.939Z,100363.80
2022-10-30T16:39:54.083Z,100363.80
2022-10-30T16:42:26.613Z,100362.40
2022-10-30T16:45:18.033Z,100361.60
2022-10-30T16:51:06.563Z,100366.60
2022-10-30T16:53:35.842Z,100364.40
2022-10-30T16:56:29.346Z,100366.00
2022-10-30T16:59:30.918Z,100371.20
2022-10-30T17:02:08.219Z,100373.40
2022-10-30T17:04:37.075Z,100372.60
2022-10-30T17:07:27.676Z,100375.20
2022-10-30T17:09:58.667Z,100375.80
2022-10-30T17:12:30.014Z,100378.60
2022-10-30T17:15:14.306Z,100380.20
2022-10-30T17:18:16.271Z,100375.60
2022-10-30T17:20:45.134Z,100384.60
2022-10-30T17:23:31.355Z,100381.40
2022-10-30T17:26:08.844Z,100378.80
2022-10-30T17:28:39.534Z,100386.00
2022-10-30T17:31:38.895Z,100388.80
2022-10-30T17:34:21.007Z,100397.40
2022-10-30T17:36:49.804Z,100398.00
2022-10-30T17:39:18.844Z,100401.40
2022-10-30T17:41:48.375Z,100395.60
2022-10-30T17:44:22.154Z,100399.00
2022-10-30T17:46:52.949Z,100396.20
2022-10-30T17:49:30.933Z,100393.40
2022-10-30T17:52:22.005Z,100392.40
2022-10-30T17:54:51.235Z,100394.00
2022-10-30T17:57:19.852Z,100396.80
2022-10-30T17:59:49.293Z,100398.60
2022-10-30T18:02:22.432Z,100400.80
2022-10-30T18:04:52.953Z,100404.20
2022-10-30T18:07:21.894Z,100396.80
2022-10-30T18:09:50.772Z,100395.20
2022-10-30T18:12:19.714Z,100396.00
2022-10-30T18:14:48.745Z,100394.80
2022-10-30T18:17:17.795Z,100399.80
2022-10-30T18:19:46.544Z,100398.00
2022-10-30T18:22:15.655Z,100395.00
2022-10-30T18:25:01.732Z,100400.00
2022-10-30T18:27:30.353Z,100399.40
2022-10-30T18:29:58.978Z,100401.60
2022-10-30T18:32:27.559Z,100405.60
2022-10-30T18:34:56.594Z,100401.40
2022-10-30T18:37:25.254Z,100403.40
2022-10-30T18:39:53.775Z,100397.40
2022-10-30T18:42:22.372Z,100398.20
2022-10-30T18:44:50.974Z,100403.40
2022-10-30T18:47:19.533Z,100399.00
2022-10-30T18:49:48.235Z,100402.20
2022-10-30T18:52:16.812Z,100397.60
2022-10-30T18:55:02.571Z,100399.40
2022-10-30T18:57:50.292Z,100395.00
2022-10-30T19:00:58.065Z,100400.00
2022-10-30T19:03:27.710Z,100400.00
2022-10-30T19:05:56.534Z,100402.80
2022-10-30T19:08:25.096Z,100403.80
2022-10-30T19:11:24.009Z,100402.40
2022-10-30T19:13:54.953Z,100405.80
2022-10-30T19:18:38.653Z,100402.00
2022-10-30T19:21:26.576Z,100406.20
2022-10-30T19:23:56.853Z,100403.00
2022-10-30T19:26:25.614Z,100404.20
2022-10-30T19:28:54.612Z,100410.80
2022-10-30T19:31:23.492Z,100412.40
2022-10-30T19:33:56.158Z,100415.00
2022-10-30T19:36:34.295Z,100407.20
2022-10-30T19:39:18.214Z,100412.00
2022-10-30T19:42:05.265Z,100410.20
2022-10-30T19:44:34.053Z,100405.40
2022-10-30T19:47:02.816Z,100404.40
2022-10-30T19:49:32.114Z,100404.60
2022-10-30T19:52:00.815Z,100404.80
2022-10-30T19:54:46.909Z,100404.60
2022-10-30T19:57:15.699Z,100406.20
2022-10-30T19:59:44.464Z,100409.40
2022-10-30T20:02:13.535Z,100404.80
2022-10-30T20:04:42.463Z,100408.00
2022-10-30T20:07:28.251Z,100408.60
2022-10-30T20:09:57.162Z,100411.20
2022-10-30T20:12:26.021Z,100413.00
2022-10-30T20:14:54.853Z,100413.60
2022-10-30T20:17:23.614Z,100413.60
2022-10-30T20:19:52.525Z,100412.00
2022-10-30T20:22:25.656Z,100420.20
2022-10-30T20:24:56.834Z,100418.80
2022-10-30T20:27:26.918Z,100423.60
2022-10-30T20:29:55.650Z,100420.80
2022-10-30T20:32:24.516Z,100423.00
2022-10-30T20:34:53.336Z,100425.00
2022-10-30T20:37:22.217Z,100426.80
2022-10-30T20:39:51.450Z,100424.20
2022-10-30T20:42:37.580Z,100422.80
2022-10-30T20:45:07.669Z,100423.40
2022-10-30T20:47:36.410Z,100423.80
2022-10-30T20:50:05.672Z,100426.20
2022-10-30T20:52:52.330Z,100423.00
2022-10-30T20:55:21.643Z,100423.80
2022-10-30T20:57:50.731Z,100425.40
2022-10-30T21:00:37.271Z,100421.60
2022-10-30T21:03:07.150Z,100422.60
2022-10-30T21:06:02.170Z,100425.40
2022-10-30T21:08:32.312Z,100423.60
2022-10-30T21:11:06.969Z,100426.40
2022-10-30T21:13:37.350Z,100429.20
2022-10-30T21:16:09.120Z,100431.20
2022-10-30T21:18:37.873Z,100435.80
2022-10-30T21:21:11.910Z,100433.40
2022-10-30T21:23:40.670Z,100436.00
2022-10-30T21:26:12.200Z,100435.00
2022-10-30T21:28:41.629Z,100441.00
2022-10-30T21:31:14.150Z,100444.00
2022-10-30T21:33:42.889Z,100445.20
2022-10-30T21:36:29.299Z,100444.00
2022-10-30T21:38:59.530Z,100444.40
2022-10-30T21:41:46.011Z,100442.60
2022-10-30T21:44:15.836Z,100441.60
2022-10-30T21:46:44.710Z,100443.20
2022-10-30T21:49:15.073Z,100441.20
2022-10-30T21:52:01.075Z,100437.00
2022-10-30T21:54:29.931Z,100437.00
2022-10-30T21:56:58.763Z,100440.00
2022-10-30T21:59:27.511Z,100438.80
2022-10-30T22:01:56.438Z,100439.60
2022-10-30T22:04:25.190Z,100436.00
2022-10-30T22:06:53.871Z,100436.60
2022-10-30T22:09:23.070Z,100435.60
2022-10-30T22:11:51.665Z,100437.00
2022-10-30T22:14:20.434Z,100436.40
2022-10-30T22:16:49.521Z,100432.40
2022-10-30T22:19:35.510Z,100434.40
2022-10-30T22:22:04.312Z,100436.60
2022-10-30T22:24:32.910Z,100434.00
2022-10-30T22:27:01.691Z,100438.00
2022-10-30T22:29:30.570Z,100437.80
2022-10-30T22:32:16.991Z,100432.80
2022-10-30T22:35:03.398Z,100438.00
2022-10-30T22:37:49.572Z,100431.60
2022-10-30T22:40:18.171Z,100433.40
2022-10-30T22:42:46.850Z,100428.60
2022-10-30T22:45:33.133Z,100429.20
2022-10-30T22:48:19.320Z,100432.20
2022-10-30T22:51:13.421Z,100424.80
2022-10-30T22:53:46.881Z,100425.60
2022-10-30T22:56:21.981Z,100427.60
2022-10-30T22:59:18.300Z,100430.80
2022-10-30T23:01:53.679Z,100425.80
2022-10-30T23:04:28.639Z,100427.60
2022-10-30T23:07:02.670Z,100423.60
2022-10-30T23:09:36.619Z,100424.80
2022-10-30T23:12:06.318Z,100428.80
2022-10-30T23:14:41.652Z,100426.00
2022-10-30T23:17:15.571Z,100427.60
2022-10-30T23:19:50.671Z,100425.60
2022-10-30T23:22:24.570Z,100431.40
2022-10-30T23:25:05.991Z,100432.00
2022-10-30T23:27:40.551Z,100429.40
2022-10-30T23:30:16.859Z,100428.80
2022-10-30T23:32:54.680Z,100437.20
2022-10-30T23:35:29.690Z,100437.40
2022-10-30T23:38:06.651Z,100443.80
2022-10-30T23:40:44.653Z,100438.00
2022-10-30T23:43:21.183Z,100438.60
2022-10-30T23:45:55.670Z,100438.40
2022-10-30T23:48:31.610Z,100441.40
2022-10-30T23:51:06.479Z,100433.00
2022-10-30T23:53:40.736Z,100433.20
2022-10-30T23:56:19.480Z,100432.80
2022-10-30T23:59:07.181Z,100431.40
